Parks, Arizona
Current Conditions -  °F | °C
As of 8:57 AM on Thursday 23 Oct 2014 (Local Time) from KFLG Reporting Station
Clear Clear  
Wind Chill: 14°   Ceiling: Unl
Heat Index: 14°   Visibility: 10mi
Dew Point:   Wind: 0mph
Humidity: 46%   Direction: NA
Pressure: 30.37"   Gusts: NA
Location:  35.26°N, 111.95°W
Report Text: KFLG 231557Z 00000KT 10SM CLR 14/03 A3037 RMK AO2 SLP220 T01440028
Loading
Personal Weather Stations






























Interactive Weather Map
Tropical Storm Tracking
New forecast layout! Learn more

10-Day Weather Forecast

Advertisements
Track Severe Weather on mobile